sensor_id;sensor_type;location;lat;lon;timestamp;P1;durP1;ratioP1;P2;durP2;ratioP2
32932;SDS011;19444;50.518;10.870;2023-04-08T00:00:06;9.90;;;6.72;;
32932;SDS011;19444;50.518;10.870;2023-04-08T00:03:04;10.65;;;6.28;;
32932;SDS011;19444;50.518;10.870;2023-04-08T00:06:01;9.30;;;6.50;;
32932;SDS011;19444;50.518;10.870;2023-04-08T00:08:59;9.25;;;5.38;;
32932;SDS011;19444;50.518;10.870;2023-04-08T00:11:56;11.93;;;6.43;;
32932;SDS011;19444;50.518;10.870;2023-04-08T00:14:53;11.10;;;5.70;;
32932;SDS011;19444;50.518;10.870;2023-04-08T00:17:49;10.57;;;6.55;;
32932;SDS011;19444;50.518;10.870;2023-04-08T00:20:48;9.52;;;6.35;;
32932;SDS011;19444;50.518;10.870;2023-04-08T00:23:45;10.10;;;5.97;;
32932;SDS011;19444;50.518;10.870;2023-04-08T00:26:42;8.65;;;5.47;;
32932;SDS011;19444;50.518;10.870;2023-04-08T00:29:39;8.85;;;6.18;;
32932;SDS011;19444;50.518;10.870;2023-04-08T00:32:36;9.07;;;6.22;;
32932;SDS011;19444;50.518;10.870;2023-04-08T00:35:33;10.90;;;6.20;;
32932;SDS011;19444;50.518;10.870;2023-04-08T00:38:30;10.32;;;5.32;;
32932;SDS011;19444;50.518;10.870;2023-04-08T00:41:27;10.73;;;5.80;;
32932;SDS011;19444;50.518;10.870;2023-04-08T00:44:24;9.57;;;5.55;;
32932;SDS011;19444;50.518;10.870;2023-04-08T00:47:21;9.32;;;5.32;;
32932;SDS011;19444;50.518;10.870;2023-04-08T00:50:18;7.55;;;4.43;;
32932;SDS011;19444;50.518;10.870;2023-04-08T00:53:16;7.88;;;4.90;;
32932;SDS011;19444;50.518;10.870;2023-04-08T00:56:14;10.57;;;5.50;;
32932;SDS011;19444;50.518;10.870;2023-04-08T00:59:11;7.00;;;5.07;;
32932;SDS011;19444;50.518;10.870;2023-04-08T01:05:35;8.98;;;5.05;;
32932;SDS011;19444;50.518;10.870;2023-04-08T01:08:51;8.45;;;5.10;;
32932;SDS011;19444;50.518;10.870;2023-04-08T01:11:49;7.10;;;4.82;;
32932;SDS011;19444;50.518;10.870;2023-04-08T01:14:48;9.32;;;5.05;;
32932;SDS011;19444;50.518;10.870;2023-04-08T01:17:54;7.63;;;4.18;;
32932;SDS011;19444;50.518;10.870;2023-04-08T01:20:53;6.45;;;3.75;;
32932;SDS011;19444;50.518;10.870;2023-04-08T01:24:05;5.75;;;3.95;;
32932;SDS011;19444;50.518;10.870;2023-04-08T01:27:26;5.95;;;3.58;;
32932;SDS011;19444;50.518;10.870;2023-04-08T01:30:26;7.05;;;3.92;;
32932;SDS011;19444;50.518;10.870;2023-04-08T01:33:25;6.60;;;3.87;;
32932;SDS011;19444;50.518;10.870;2023-04-08T01:36:23;6.63;;;3.78;;
32932;SDS011;19444;50.518;10.870;2023-04-08T01:39:21;6.85;;;3.70;;
32932;SDS011;19444;50.518;10.870;2023-04-08T01:42:21;6.53;;;3.75;;
32932;SDS011;19444;50.518;10.870;2023-04-08T01:45:21;7.05;;;3.88;;
32932;SDS011;19444;50.518;10.870;2023-04-08T01:48:19;8.23;;;4.40;;
32932;SDS011;19444;50.518;10.870;2023-04-08T01:51:16;5.68;;;3.55;;
32932;SDS011;19444;50.518;10.870;2023-04-08T01:54:15;6.28;;;3.85;;
32932;SDS011;19444;50.518;10.870;2023-04-08T01:57:13;5.85;;;3.85;;
32932;SDS011;19444;50.518;10.870;2023-04-08T02:00:20;5.65;;;4.20;;
32932;SDS011;19444;50.518;10.870;2023-04-08T02:03:21;7.72;;;4.55;;
32932;SDS011;19444;50.518;10.870;2023-04-08T02:06:20;6.90;;;4.63;;
32932;SDS011;19444;50.518;10.870;2023-04-08T02:09:18;8.43;;;4.50;;
32932;SDS011;19444;50.518;10.870;2023-04-08T02:12:15;7.05;;;4.55;;
32932;SDS011;19444;50.518;10.870;2023-04-08T02:15:12;8.25;;;4.55;;
32932;SDS011;19444;50.518;10.870;2023-04-08T02:18:12;8.38;;;4.53;;
32932;SDS011;19444;50.518;10.870;2023-04-08T02:21:14;7.05;;;4.60;;
32932;SDS011;19444;50.518;10.870;2023-04-08T02:24:13;7.22;;;4.85;;
32932;SDS011;19444;50.518;10.870;2023-04-08T02:27:12;6.90;;;4.50;;
32932;SDS011;19444;50.518;10.870;2023-04-08T02:30:11;9.88;;;5.25;;
32932;SDS011;19444;50.518;10.870;2023-04-08T02:33:08;7.97;;;4.97;;
32932;SDS011;19444;50.518;10.870;2023-04-08T02:36:07;8.45;;;5.30;;
32932;SDS011;19444;50.518;10.870;2023-04-08T02:39:06;7.78;;;5.10;;
32932;SDS011;19444;50.518;10.870;2023-04-08T02:42:03;6.22;;;4.32;;
32932;SDS011;19444;50.518;10.870;2023-04-08T02:45:01;9.13;;;4.63;;
32932;SDS011;19444;50.518;10.870;2023-04-08T02:47:58;7.82;;;4.25;;
32932;SDS011;19444;50.518;10.870;2023-04-08T02:50:56;8.20;;;4.50;;
32932;SDS011;19444;50.518;10.870;2023-04-08T02:53:53;8.00;;;4.32;;
32932;SDS011;19444;50.518;10.870;2023-04-08T02:56:50;7.22;;;4.47;;
32932;SDS011;19444;50.518;10.870;2023-04-08T02:59:47;5.72;;;3.70;;
32932;SDS011;19444;50.518;10.870;2023-04-08T03:02:44;8.00;;;4.70;;
32932;SDS011;19444;50.518;10.870;2023-04-08T03:05:41;6.35;;;4.05;;
32932;SDS011;19444;50.518;10.870;2023-04-08T03:08:38;5.95;;;3.78;;
32932;SDS011;19444;50.518;10.870;2023-04-08T03:11:35;6.40;;;3.85;;
32932;SDS011;19444;50.518;10.870;2023-04-08T03:14:32;5.63;;;3.63;;
32932;SDS011;19444;50.518;10.870;2023-04-08T03:17:29;6.55;;;3.35;;
32932;SDS011;19444;50.518;10.870;2023-04-08T03:20:29;5.00;;;3.50;;
32932;SDS011;19444;50.518;10.870;2023-04-08T03:23:25;5.82;;;3.47;;
32932;SDS011;19444;50.518;10.870;2023-04-08T03:26:22;5.00;;;2.83;;
32932;SDS011;19444;50.518;10.870;2023-04-08T03:29:19;5.22;;;2.97;;
32932;SDS011;19444;50.518;10.870;2023-04-08T03:32:16;4.38;;;2.88;;
32932;SDS011;19444;50.518;10.870;2023-04-08T03:35:13;4.82;;;3.13;;
32932;SDS011;19444;50.518;10.870;2023-04-08T03:38:10;3.58;;;2.50;;
32932;SDS011;19444;50.518;10.870;2023-04-08T03:41:07;4.47;;;2.70;;
32932;SDS011;19444;50.518;10.870;2023-04-08T03:44:04;4.72;;;2.55;;
32932;SDS011;19444;50.518;10.870;2023-04-08T03:47:01;4.82;;;2.70;;
32932;SDS011;19444;50.518;10.870;2023-04-08T03:49:58;4.43;;;2.78;;
32932;SDS011;19444;50.518;10.870;2023-04-08T03:52:55;4.82;;;2.92;;
32932;SDS011;19444;50.518;10.870;2023-04-08T03:55:52;6.63;;;3.20;;
32932;SDS011;19444;50.518;10.870;2023-04-08T03:58:51;6.10;;;3.40;;
32932;SDS011;19444;50.518;10.870;2023-04-08T04:01:48;5.97;;;3.83;;
32932;SDS011;19444;50.518;10.870;2023-04-08T04:04:46;5.75;;;3.80;;
32932;SDS011;19444;50.518;10.870;2023-04-08T04:07:43;5.97;;;3.20;;
32932;SDS011;19444;50.518;10.870;2023-04-08T04:10:40;4.82;;;3.38;;
32932;SDS011;19444;50.518;10.870;2023-04-08T04:13:37;7.60;;;4.60;;
32932;SDS011;19444;50.518;10.870;2023-04-08T04:16:34;7.10;;;4.22;;
32932;SDS011;19444;50.518;10.870;2023-04-08T04:19:31;7.05;;;4.15;;
32932;SDS011;19444;50.518;10.870;2023-04-08T04:22:28;6.35;;;4.30;;
32932;SDS011;19444;50.518;10.870;2023-04-08T04:25:25;7.43;;;3.88;;
32932;SDS011;19444;50.518;10.870;2023-04-08T04:28:22;6.82;;;4.28;;
32932;SDS011;19444;50.518;10.870;2023-04-08T04:31:19;7.03;;;4.18;;
32932;SDS011;19444;50.518;10.870;2023-04-08T04:34:18;6.68;;;3.97;;
32932;SDS011;19444;50.518;10.870;2023-04-08T04:37:15;7.40;;;4.28;;
32932;SDS011;19444;50.518;10.870;2023-04-08T04:40:12;5.97;;;4.13;;
32932;SDS011;19444;50.518;10.870;2023-04-08T04:43:09;7.55;;;4.47;;
32932;SDS011;19444;50.518;10.870;2023-04-08T04:46:06;6.85;;;4.10;;
32932;SDS011;19444;50.518;10.870;2023-04-08T04:49:04;8.20;;;4.40;;
32932;SDS011;19444;50.518;10.870;2023-04-08T04:52:01;7.30;;;4.28;;
32932;SDS011;19444;50.518;10.870;2023-04-08T04:54:58;6.55;;;4.30;;
32932;SDS011;19444;50.518;10.870;2023-04-08T04:57:54;6.68;;;4.32;;
32932;SDS011;19444;50.518;10.870;2023-04-08T05:00:51;7.57;;;4.40;;
32932;SDS011;19444;50.518;10.870;2023-04-08T05:03:48;6.72;;;4.25;;
32932;SDS011;19444;50.518;10.870;2023-04-08T05:06:45;7.90;;;4.68;;
32932;SDS011;19444;50.518;10.870;2023-04-08T05:09:42;7.90;;;4.70;;
32932;SDS011;19444;50.518;10.870;2023-04-08T05:12:39;6.78;;;4.07;;
32932;SDS011;19444;50.518;10.870;2023-04-08T05:15:36;8.00;;;4.35;;
32932;SDS011;19444;50.518;10.870;2023-04-08T05:18:33;7.10;;;4.38;;
32932;SDS011;19444;50.518;10.870;2023-04-08T05:21:30;6.78;;;4.25;;
32932;SDS011;19444;50.518;10.870;2023-04-08T05:24:27;6.25;;;3.80;;
32932;SDS011;19444;50.518;10.870;2023-04-08T05:27:24;6.30;;;3.90;;
32932;SDS011;19444;50.518;10.870;2023-04-08T05:30:21;5.55;;;2.92;;
32932;SDS011;19444;50.518;10.870;2023-04-08T05:33:18;6.65;;;3.75;;
32932;SDS011;19444;50.518;10.870;2023-04-08T05:36:15;8.07;;;4.50;;
32932;SDS011;19444;50.518;10.870;2023-04-08T05:39:12;7.70;;;4.18;;
32932;SDS011;19444;50.518;10.870;2023-04-08T05:42:09;7.28;;;4.15;;
32932;SDS011;19444;50.518;10.870;2023-04-08T05:45:08;7.28;;;4.00;;
32932;SDS011;19444;50.518;10.870;2023-04-08T05:48:05;8.30;;;4.60;;
32932;SDS011;19444;50.518;10.870;2023-04-08T05:51:02;9.07;;;5.25;;
32932;SDS011;19444;50.518;10.870;2023-04-08T05:53:59;7.35;;;4.25;;
32932;SDS011;19444;50.518;10.870;2023-04-08T05:56:56;8.75;;;5.40;;
32932;SDS011;19444;50.518;10.870;2023-04-08T05:59:53;9.00;;;5.40;;
32932;SDS011;19444;50.518;10.870;2023-04-08T06:02:50;6.75;;;4.38;;
32932;SDS011;19444;50.518;10.870;2023-04-08T06:05:47;7.18;;;4.45;;
32932;SDS011;19444;50.518;10.870;2023-04-08T06:08:44;7.85;;;4.55;;
32932;SDS011;19444;50.518;10.870;2023-04-08T06:11:41;6.15;;;3.63;;
32932;SDS011;19444;50.518;10.870;2023-04-08T06:14:38;5.75;;;3.42;;
32932;SDS011;19444;50.518;10.870;2023-04-08T06:17:35;6.82;;;4.28;;
32932;SDS011;19444;50.518;10.870;2023-04-08T06:20:34;5.93;;;3.47;;
32932;SDS011;19444;50.518;10.870;2023-04-08T06:23:31;7.32;;;4.20;;
32932;SDS011;19444;50.518;10.870;2023-04-08T06:26:28;5.50;;;3.80;;
32932;SDS011;19444;50.518;10.870;2023-04-08T06:29:25;6.32;;;3.92;;
32932;SDS011;19444;50.518;10.870;2023-04-08T06:32:22;5.93;;;4.20;;
32932;SDS011;19444;50.518;10.870;2023-04-08T06:35:19;8.57;;;4.45;;
32932;SDS011;19444;50.518;10.870;2023-04-08T06:38:16;7.65;;;4.57;;
32932;SDS011;19444;50.518;10.870;2023-04-08T06:41:12;6.10;;;4.25;;
32932;SDS011;19444;50.518;10.870;2023-04-08T06:44:09;6.80;;;4.28;;
32932;SDS011;19444;50.518;10.870;2023-04-08T06:47:06;6.57;;;4.53;;
32932;SDS011;19444;50.518;10.870;2023-04-08T06:50:03;6.53;;;3.90;;
32932;SDS011;19444;50.518;10.870;2023-04-08T06:53:01;5.55;;;3.70;;
32932;SDS011;19444;50.518;10.870;2023-04-08T06:55:58;5.63;;;3.08;;
32932;SDS011;19444;50.518;10.870;2023-04-08T06:58:55;6.78;;;3.95;;
32932;SDS011;19444;50.518;10.870;2023-04-08T07:01:52;5.15;;;3.60;;
32932;SDS011;19444;50.518;10.870;2023-04-08T07:04:49;4.43;;;2.70;;
32932;SDS011;19444;50.518;10.870;2023-04-08T07:07:46;6.15;;;3.13;;
32932;SDS011;19444;50.518;10.870;2023-04-08T07:10:42;5.07;;;2.90;;
32932;SDS011;19444;50.518;10.870;2023-04-08T07:13:40;6.22;;;3.40;;
32932;SDS011;19444;50.518;10.870;2023-04-08T07:16:36;5.82;;;3.60;;
32932;SDS011;19444;50.518;10.870;2023-04-08T07:19:33;4.90;;;2.78;;
32932;SDS011;19444;50.518;10.870;2023-04-08T07:22:31;5.78;;;3.13;;
32932;SDS011;19444;50.518;10.870;2023-04-08T07:25:28;6.05;;;3.72;;
32932;SDS011;19444;50.518;10.870;2023-04-08T07:28:25;8.43;;;3.53;;
32932;SDS011;19444;50.518;10.870;2023-04-08T07:31:21;4.90;;;3.05;;
32932;SDS011;19444;50.518;10.870;2023-04-08T07:34:18;4.50;;;3.42;;
32932;SDS011;19444;50.518;10.870;2023-04-08T07:37:15;3.97;;;2.67;;
32932;SDS011;19444;50.518;10.870;2023-04-08T07:40:13;4.93;;;2.95;;
32932;SDS011;19444;50.518;10.870;2023-04-08T07:43:10;5.07;;;2.90;;
32932;SDS011;19444;50.518;10.870;2023-04-08T07:46:07;4.32;;;2.45;;
32932;SDS011;19444;50.518;10.870;2023-04-08T07:49:04;2.95;;;1.83;;
32932;SDS011;19444;50.518;10.870;2023-04-08T07:52:01;3.63;;;2.42;;
32932;SDS011;19444;50.518;10.870;2023-04-08T07:54:58;3.83;;;2.50;;
32932;SDS011;19444;50.518;10.870;2023-04-08T07:57:56;3.80;;;2.60;;
32932;SDS011;19444;50.518;10.870;2023-04-08T08:00:53;3.53;;;2.00;;
32932;SDS011;19444;50.518;10.870;2023-04-08T08:03:52;2.95;;;1.70;;
32932;SDS011;19444;50.518;10.870;2023-04-08T08:06:50;2.03;;;1.13;;
32932;SDS011;19444;50.518;10.870;2023-04-08T08:09:46;2.03;;;1.25;;
32932;SDS011;19444;50.518;10.870;2023-04-08T08:12:44;3.42;;;1.50;;
32932;SDS011;19444;50.518;10.870;2023-04-08T08:15:41;2.03;;;1.42;;
32932;SDS011;19444;50.518;10.870;2023-04-08T08:18:38;2.45;;;1.00;;
32932;SDS011;19444;50.518;10.870;2023-04-08T08:21:36;2.22;;;1.27;;
32932;SDS011;19444;50.518;10.870;2023-04-08T08:24:33;2.33;;;1.15;;
32932;SDS011;19444;50.518;10.870;2023-04-08T08:27:29;2.72;;;1.20;;
32932;SDS011;19444;50.518;10.870;2023-04-08T08:30:26;2.60;;;1.60;;
32932;SDS011;19444;50.518;10.870;2023-04-08T08:33:24;2.33;;;1.05;;
32932;SDS011;19444;50.518;10.870;2023-04-08T08:36:21;3.08;;;1.20;;
32932;SDS011;19444;50.518;10.870;2023-04-08T08:39:17;2.65;;;1.20;;
32932;SDS011;19444;50.518;10.870;2023-04-08T08:42:18;1.83;;;1.15;;
32932;SDS011;19444;50.518;10.870;2023-04-08T08:45:19;1.85;;;1.15;;
32932;SDS011;19444;50.518;10.870;2023-04-08T08:48:16;1.98;;;1.20;;
32932;SDS011;19444;50.518;10.870;2023-04-08T08:51:13;2.60;;;1.30;;
32932;SDS011;19444;50.518;10.870;2023-04-08T08:54:10;2.97;;;1.40;;
32932;SDS011;19444;50.518;10.870;2023-04-08T08:57:15;2.35;;;1.15;;
32932;SDS011;19444;50.518;10.870;2023-04-08T09:00:15;1.73;;;1.10;;
32932;SDS011;19444;50.518;10.870;2023-04-08T09:03:14;2.15;;;1.48;;
32932;SDS011;19444;50.518;10.870;2023-04-08T09:06:16;3.75;;;1.85;;
32932;SDS011;19444;50.518;10.870;2023-04-08T09:09:13;2.22;;;1.65;;
32932;SDS011;19444;50.518;10.870;2023-04-08T09:12:11;3.10;;;1.75;;
32932;SDS011;19444;50.518;10.870;2023-04-08T09:15:09;2.33;;;1.20;;
32932;SDS011;19444;50.518;10.870;2023-04-08T09:18:18;3.50;;;1.45;;
32932;SDS011;19444;50.518;10.870;2023-04-08T09:21:18;3.13;;;1.85;;
32932;SDS011;19444;50.518;10.870;2023-04-08T09:24:27;4.50;;;1.90;;
32932;SDS011;19444;50.518;10.870;2023-04-08T09:27:34;2.70;;;1.60;;
32932;SDS011;19444;50.518;10.870;2023-04-08T09:30:31;2.83;;;1.50;;
32932;SDS011;19444;50.518;10.870;2023-04-08T09:33:31;2.53;;;1.40;;
32932;SDS011;19444;50.518;10.870;2023-04-08T09:36:28;4.37;;;1.60;;
32932;SDS011;19444;50.518;10.870;2023-04-08T09:39:25;2.72;;;1.63;;
32932;SDS011;19444;50.518;10.870;2023-04-08T09:42:23;2.30;;;1.25;;
32932;SDS011;19444;50.518;10.870;2023-04-08T09:45:21;3.38;;;1.40;;
32932;SDS011;19444;50.518;10.870;2023-04-08T09:48:21;2.55;;;1.58;;
32932;SDS011;19444;50.518;10.870;2023-04-08T09:51:22;2.72;;;1.30;;
32932;SDS011;19444;50.518;10.870;2023-04-08T09:54:20;2.58;;;1.35;;
32932;SDS011;19444;50.518;10.870;2023-04-08T10:00:48;3.55;;;1.60;;
32932;SDS011;19444;50.518;10.870;2023-04-08T10:03:48;3.33;;;2.03;;
32932;SDS011;19444;50.518;10.870;2023-04-08T10:06:52;3.58;;;2.25;;
32932;SDS011;19444;50.518;10.870;2023-04-08T10:09:58;4.85;;;1.95;;
32932;SDS011;19444;50.518;10.870;2023-04-08T10:12:55;3.80;;;2.17;;
32932;SDS011;19444;50.518;10.870;2023-04-08T10:19:35;5.63;;;3.33;;
32932;SDS011;19444;50.518;10.870;2023-04-08T10:22:45;9.50;;;5.82;;
32932;SDS011;19444;50.518;10.870;2023-04-08T10:25:46;11.57;;;5.20;;
32932;SDS011;19444;50.518;10.870;2023-04-08T10:28:43;3.47;;;2.30;;
32932;SDS011;19444;50.518;10.870;2023-04-08T10:31:40;4.15;;;2.00;;
32932;SDS011;19444;50.518;10.870;2023-04-08T10:34:49;4.00;;;2.15;;
32932;SDS011;19444;50.518;10.870;2023-04-08T10:37:49;7.38;;;3.53;;
32932;SDS011;19444;50.518;10.870;2023-04-08T10:40:46;5.88;;;2.22;;
32932;SDS011;19444;50.518;10.870;2023-04-08T10:43:44;5.57;;;3.17;;
32932;SDS011;19444;50.518;10.870;2023-04-08T10:46:43;14.10;;;7.78;;
32932;SDS011;19444;50.518;10.870;2023-04-08T10:49:44;8.55;;;5.40;;
32932;SDS011;19444;50.518;10.870;2023-04-08T10:52:46;3.85;;;2.40;;
32932;SDS011;19444;50.518;10.870;2023-04-08T10:55:45;3.58;;;1.83;;
32932;SDS011;19444;50.518;10.870;2023-04-08T11:01:47;4.22;;;2.30;;
32932;SDS011;19444;50.518;10.870;2023-04-08T11:04:44;4.53;;;2.38;;
32932;SDS011;19444;50.518;10.870;2023-04-08T11:07:43;4.45;;;2.47;;
32932;SDS011;19444;50.518;10.870;2023-04-08T11:10:40;5.10;;;3.33;;
32932;SDS011;19444;50.518;10.870;2023-04-08T11:13:40;4.20;;;2.38;;
32932;SDS011;19444;50.518;10.870;2023-04-08T11:16:48;4.13;;;2.38;;
32932;SDS011;19444;50.518;10.870;2023-04-08T11:19:45;4.47;;;3.10;;
32932;SDS011;19444;50.518;10.870;2023-04-08T11:22:42;3.33;;;1.90;;
32932;SDS011;19444;50.518;10.870;2023-04-08T11:25:40;4.07;;;2.50;;
32932;SDS011;19444;50.518;10.870;2023-04-08T11:28:38;4.95;;;2.63;;
32932;SDS011;19444;50.518;10.870;2023-04-08T11:31:35;3.30;;;1.98;;
32932;SDS011;19444;50.518;10.870;2023-04-08T11:34:32;3.20;;;1.50;;
32932;SDS011;19444;50.518;10.870;2023-04-08T11:37:38;5.10;;;2.60;;
32932;SDS011;19444;50.518;10.870;2023-04-08T11:40:36;4.68;;;2.10;;
32932;SDS011;19444;50.518;10.870;2023-04-08T11:43:33;3.08;;;1.77;;
32932;SDS011;19444;50.518;10.870;2023-04-08T11:46:36;3.17;;;2.03;;
32932;SDS011;19444;50.518;10.870;2023-04-08T11:49:43;3.47;;;2.03;;
32932;SDS011;19444;50.518;10.870;2023-04-08T11:55:44;5.60;;;3.38;;
32932;SDS011;19444;50.518;10.870;2023-04-08T11:58:41;7.18;;;3.88;;
32932;SDS011;19444;50.518;10.870;2023-04-08T12:01:38;8.45;;;4.78;;
32932;SDS011;19444;50.518;10.870;2023-04-08T12:04:35;9.23;;;4.32;;
32932;SDS011;19444;50.518;10.870;2023-04-08T12:07:32;6.43;;;3.00;;
32932;SDS011;19444;50.518;10.870;2023-04-08T12:10:29;6.47;;;3.15;;
32932;SDS011;19444;50.518;10.870;2023-04-08T12:13:26;8.38;;;4.35;;
32932;SDS011;19444;50.518;10.870;2023-04-08T12:16:23;9.93;;;5.22;;
32932;SDS011;19444;50.518;10.870;2023-04-08T12:19:20;10.23;;;5.55;;
32932;SDS011;19444;50.518;10.870;2023-04-08T12:22:17;8.45;;;4.82;;
32932;SDS011;19444;50.518;10.870;2023-04-08T12:25:14;10.05;;;5.60;;
32932;SDS011;19444;50.518;10.870;2023-04-08T12:28:11;7.70;;;4.72;;
32932;SDS011;19444;50.518;10.870;2023-04-08T12:31:08;7.78;;;4.95;;
32932;SDS011;19444;50.518;10.870;2023-04-08T12:34:05;7.97;;;4.13;;
32932;SDS011;19444;50.518;10.870;2023-04-08T12:37:02;8.85;;;5.28;;
32932;SDS011;19444;50.518;10.870;2023-04-08T12:39:59;7.50;;;4.43;;
32932;SDS011;19444;50.518;10.870;2023-04-08T12:42:56;10.25;;;5.85;;
32932;SDS011;19444;50.518;10.870;2023-04-08T12:45:53;11.43;;;6.38;;
32932;SDS011;19444;50.518;10.870;2023-04-08T12:48:50;12.65;;;6.90;;
32932;SDS011;19444;50.518;10.870;2023-04-08T12:51:59;10.07;;;6.30;;
32932;SDS011;19444;50.518;10.870;2023-04-08T12:54:56;9.95;;;6.15;;
32932;SDS011;19444;50.518;10.870;2023-04-08T12:57:53;10.68;;;6.13;;
32932;SDS011;19444;50.518;10.870;2023-04-08T13:00:50;11.82;;;6.20;;
32932;SDS011;19444;50.518;10.870;2023-04-08T13:03:46;8.80;;;5.05;;
32932;SDS011;19444;50.518;10.870;2023-04-08T13:06:44;7.68;;;4.10;;
32932;SDS011;19444;50.518;10.870;2023-04-08T13:09:41;8.05;;;4.82;;
32932;SDS011;19444;50.518;10.870;2023-04-08T13:12:40;10.38;;;5.50;;
32932;SDS011;19444;50.518;10.870;2023-04-08T13:15:37;10.55;;;5.60;;
32932;SDS011;19444;50.518;10.870;2023-04-08T13:18:34;11.00;;;6.15;;
32932;SDS011;19444;50.518;10.870;2023-04-08T13:21:31;11.95;;;5.60;;
32932;SDS011;19444;50.518;10.870;2023-04-08T13:24:28;10.57;;;5.78;;
32932;SDS011;19444;50.518;10.870;2023-04-08T13:27:25;10.80;;;5.93;;
32932;SDS011;19444;50.518;10.870;2023-04-08T13:30:22;11.48;;;6.35;;
32932;SDS011;19444;50.518;10.870;2023-04-08T13:33:19;11.88;;;6.03;;
32932;SDS011;19444;50.518;10.870;2023-04-08T13:36:17;11.13;;;6.00;;
32932;SDS011;19444;50.518;10.870;2023-04-08T13:39:14;14.02;;;8.65;;
32932;SDS011;19444;50.518;10.870;2023-04-08T13:42:11;13.23;;;7.88;;
32932;SDS011;19444;50.518;10.870;2023-04-08T13:45:07;12.10;;;7.03;;
32932;SDS011;19444;50.518;10.870;2023-04-08T13:48:05;15.07;;;8.90;;
32932;SDS011;19444;50.518;10.870;2023-04-08T13:51:02;13.07;;;8.05;;
32932;SDS011;19444;50.518;10.870;2023-04-08T13:53:59;13.02;;;8.00;;
32932;SDS011;19444;50.518;10.870;2023-04-08T13:56:56;12.77;;;6.20;;
32932;SDS011;19444;50.518;10.870;2023-04-08T13:59:53;14.52;;;6.93;;
32932;SDS011;19444;50.518;10.870;2023-04-08T14:02:50;12.75;;;6.43;;
32932;SDS011;19444;50.518;10.870;2023-04-08T14:05:47;12.07;;;7.13;;
32932;SDS011;19444;50.518;10.870;2023-04-08T14:08:46;12.23;;;6.70;;
32932;SDS011;19444;50.518;10.870;2023-04-08T14:11:42;15.07;;;9.75;;
32932;SDS011;19444;50.518;10.870;2023-04-08T14:14:39;18.63;;;11.52;;
32932;SDS011;19444;50.518;10.870;2023-04-08T14:17:36;19.67;;;9.77;;
32932;SDS011;19444;50.518;10.870;2023-04-08T14:20:33;25.92;;;14.93;;
32932;SDS011;19444;50.518;10.870;2023-04-08T14:23:31;19.63;;;10.43;;
32932;SDS011;19444;50.518;10.870;2023-04-08T14:26:27;14.80;;;9.00;;
32932;SDS011;19444;50.518;10.870;2023-04-08T14:29:24;13.50;;;8.18;;
32932;SDS011;19444;50.518;10.870;2023-04-08T14:32:22;12.73;;;8.30;;
32932;SDS011;19444;50.518;10.870;2023-04-08T14:35:19;15.13;;;9.50;;
32932;SDS011;19444;50.518;10.870;2023-04-08T14:38:16;12.30;;;7.35;;
32932;SDS011;19444;50.518;10.870;2023-04-08T14:41:15;52.08;;;24.42;;
32932;SDS011;19444;50.518;10.870;2023-04-08T14:44:12;52.60;;;26.08;;
32932;SDS011;19444;50.518;10.870;2023-04-08T14:47:09;31.02;;;16.13;;
32932;SDS011;19444;50.518;10.870;2023-04-08T14:50:07;50.33;;;25.35;;
32932;SDS011;19444;50.518;10.870;2023-04-08T14:53:04;34.53;;;17.15;;
32932;SDS011;19444;50.518;10.870;2023-04-08T14:56:01;106.75;;;43.00;;
32932;SDS011;19444;50.518;10.870;2023-04-08T14:58:59;20.63;;;11.98;;
32932;SDS011;19444;50.518;10.870;2023-04-08T15:01:56;25.98;;;13.90;;
32932;SDS011;19444;50.518;10.870;2023-04-08T15:04:53;26.75;;;14.05;;
32932;SDS011;19444;50.518;10.870;2023-04-08T15:07:50;41.60;;;19.23;;
32932;SDS011;19444;50.518;10.870;2023-04-08T15:10:46;37.78;;;19.17;;
32932;SDS011;19444;50.518;10.870;2023-04-08T15:13:43;61.15;;;32.65;;
32932;SDS011;19444;50.518;10.870;2023-04-08T15:16:40;35.10;;;17.90;;
32932;SDS011;19444;50.518;10.870;2023-04-08T15:19:37;63.47;;;29.85;;
32932;SDS011;19444;50.518;10.870;2023-04-08T15:22:34;95.07;;;48.35;;
32932;SDS011;19444;50.518;10.870;2023-04-08T15:25:31;44.67;;;24.63;;
32932;SDS011;19444;50.518;10.870;2023-04-08T15:28:28;25.05;;;14.40;;
32932;SDS011;19444;50.518;10.870;2023-04-08T15:31:25;25.40;;;15.35;;
32932;SDS011;19444;50.518;10.870;2023-04-08T15:34:22;21.35;;;12.93;;
32932;SDS011;19444;50.518;10.870;2023-04-08T15:37:19;25.40;;;15.50;;
32932;SDS011;19444;50.518;10.870;2023-04-08T15:40:17;22.25;;;12.32;;
32932;SDS011;19444;50.518;10.870;2023-04-08T15:43:14;25.77;;;14.07;;
32932;SDS011;19444;50.518;10.870;2023-04-08T15:46:16;33.78;;;19.42;;
32932;SDS011;19444;50.518;10.870;2023-04-08T15:49:14;35.83;;;20.33;;
32932;SDS011;19444;50.518;10.870;2023-04-08T15:52:11;36.55;;;20.55;;
32932;SDS011;19444;50.518;10.870;2023-04-08T15:55:08;42.78;;;24.27;;
32932;SDS011;19444;50.518;10.870;2023-04-08T15:58:05;49.88;;;26.17;;
32932;SDS011;19444;50.518;10.870;2023-04-08T16:01:02;24.85;;;14.07;;
32932;SDS011;19444;50.518;10.870;2023-04-08T16:04:00;25.08;;;14.13;;
32932;SDS011;19444;50.518;10.870;2023-04-08T16:06:57;26.08;;;14.57;;
32932;SDS011;19444;50.518;10.870;2023-04-08T16:09:54;47.95;;;25.27;;
32932;SDS011;19444;50.518;10.870;2023-04-08T16:12:51;41.53;;;21.90;;
32932;SDS011;19444;50.518;10.870;2023-04-08T16:15:48;29.95;;;16.67;;
32932;SDS011;19444;50.518;10.870;2023-04-08T16:18:45;47.22;;;27.67;;
32932;SDS011;19444;50.518;10.870;2023-04-08T16:21:43;61.97;;;35.60;;
32932;SDS011;19444;50.518;10.870;2023-04-08T16:24:40;71.07;;;40.45;;
32932;SDS011;19444;50.518;10.870;2023-04-08T16:27:37;30.35;;;18.10;;
32932;SDS011;19444;50.518;10.870;2023-04-08T16:30:34;32.78;;;20.92;;
32932;SDS011;19444;50.518;10.870;2023-04-08T16:33:32;28.40;;;16.25;;
32932;SDS011;19444;50.518;10.870;2023-04-08T16:36:29;29.10;;;17.27;;
32932;SDS011;19444;50.518;10.870;2023-04-08T16:39:26;27.40;;;15.85;;
32932;SDS011;19444;50.518;10.870;2023-04-08T16:42:23;31.23;;;18.00;;
32932;SDS011;19444;50.518;10.870;2023-04-08T16:45:20;25.80;;;15.48;;
32932;SDS011;19444;50.518;10.870;2023-04-08T16:48:17;26.58;;;16.38;;
32932;SDS011;19444;50.518;10.870;2023-04-08T16:51:14;41.88;;;28.80;;
32932;SDS011;19444;50.518;10.870;2023-04-08T16:54:12;31.13;;;18.58;;
32932;SDS011;19444;50.518;10.870;2023-04-08T16:57:09;30.10;;;18.40;;
32932;SDS011;19444;50.518;10.870;2023-04-08T17:00:06;25.73;;;15.20;;
32932;SDS011;19444;50.518;10.870;2023-04-08T17:03:06;66.10;;;41.05;;
32932;SDS011;19444;50.518;10.870;2023-04-08T17:06:07;40.58;;;23.05;;
32932;SDS011;19444;50.518;10.870;2023-04-08T17:09:07;57.83;;;31.05;;
32932;SDS011;19444;50.518;10.870;2023-04-08T17:12:04;37.67;;;19.77;;
32932;SDS011;19444;50.518;10.870;2023-04-08T17:15:01;30.17;;;18.13;;
32932;SDS011;19444;50.518;10.870;2023-04-08T17:17:59;33.53;;;19.65;;
32932;SDS011;19444;50.518;10.870;2023-04-08T17:20:56;35.65;;;20.35;;
32932;SDS011;19444;50.518;10.870;2023-04-08T17:23:53;28.67;;;17.45;;
32932;SDS011;19444;50.518;10.870;2023-04-08T17:26:50;32.95;;;18.23;;
32932;SDS011;19444;50.518;10.870;2023-04-08T17:29:47;34.13;;;20.70;;
32932;SDS011;19444;50.518;10.870;2023-04-08T17:32:44;33.28;;;16.77;;
32932;SDS011;19444;50.518;10.870;2023-04-08T17:35:41;31.10;;;16.80;;
32932;SDS011;19444;50.518;10.870;2023-04-08T17:38:38;41.95;;;23.52;;
32932;SDS011;19444;50.518;10.870;2023-04-08T17:41:36;46.03;;;27.52;;
32932;SDS011;19444;50.518;10.870;2023-04-08T17:44:36;34.70;;;20.73;;